createdAt,value
2023-05-02T00:00:08.262Z,15.98
2023-05-02T00:02:59.444Z,15.96
2023-05-02T00:05:31.106Z,15.90
2023-05-02T00:08:02.341Z,15.88
2023-05-02T00:10:33.021Z,15.88
2023-05-02T00:13:04.203Z,15.87
2023-05-02T00:15:34.871Z,15.85
2023-05-02T00:18:05.711Z,15.84
2023-05-02T00:20:36.524Z,15.80
2023-05-02T00:23:07.565Z,15.76
2023-05-02T00:25:38.311Z,15.73
2023-05-02T00:28:09.442Z,15.72
2023-05-02T00:30:40.255Z,15.70
2023-05-02T00:33:12.670Z,15.67
2023-05-02T00:35:43.535Z,15.64
2023-05-02T00:38:14.333Z,15.57
2023-05-02T00:40:46.406Z,15.50
2023-05-02T00:43:17.787Z,15.47
2023-05-02T00:45:48.788Z,15.46
2023-05-02T00:48:21.837Z,15.43
2023-05-02T00:50:52.554Z,15.33
2023-05-02T00:53:23.469Z,15.19
2023-05-02T00:55:54.475Z,15.10
2023-05-02T00:58:25.252Z,15.01
2023-05-02T01:01:04.591Z,14.86
2023-05-02T01:03:37.055Z,14.71
2023-05-02T01:06:09.767Z,14.57
2023-05-02T01:08:41.843Z,14.48
2023-05-02T01:11:15.337Z,14.47
2023-05-02T01:13:46.311Z,14.47
2023-05-02T01:16:17.350Z,14.46
2023-05-02T01:18:48.305Z,14.50
2023-05-02T01:21:19.107Z,14.47
2023-05-02T01:23:54.171Z,14.44
2023-05-02T01:26:28.647Z,14.41
2023-05-02T01:29:00.723Z,14.33
2023-05-02T01:31:33.189Z,14.27
2023-05-02T01:34:04.612Z,14.24
2023-05-02T01:36:35.500Z,14.18
2023-05-02T01:39:07.546Z,14.05
2023-05-02T01:41:39.135Z,13.96
2023-05-02T01:44:10.007Z,13.91
2023-05-02T01:46:41.735Z,13.82
2023-05-02T01:49:12.742Z,13.75
2023-05-02T01:51:45.533Z,13.66
2023-05-02T01:54:16.748Z,13.62
2023-05-02T01:56:47.845Z,13.58
2023-05-02T01:59:20.236Z,13.51
2023-05-02T02:01:51.718Z,13.48
2023-05-02T02:04:22.695Z,13.49
2023-05-02T02:06:55.387Z,13.55
2023-05-02T02:09:26.386Z,13.59
2023-05-02T02:11:59.871Z,13.61
2023-05-02T02:14:33.123Z,13.60
2023-05-02T02:17:05.482Z,13.57
2023-05-02T02:19:36.711Z,13.55
2023-05-02T02:22:07.705Z,13.54
2023-05-02T02:24:38.556Z,13.50
2023-05-02T02:27:09.355Z,13.40
2023-05-02T02:29:40.175Z,13.36
2023-05-02T02:32:11.038Z,13.34
2023-05-02T02:34:41.983Z,13.32
2023-05-02T02:37:14.521Z,13.28
2023-05-02T02:39:47.831Z,13.24
2023-05-02T02:42:20.741Z,13.20
2023-05-02T02:44:54.378Z,13.17
2023-05-02T02:47:28.399Z,13.14
2023-05-02T02:50:02.547Z,13.13
2023-05-02T02:52:35.179Z,13.10
2023-05-02T02:55:09.674Z,13.12
2023-05-02T02:57:41.206Z,13.17
2023-05-02T03:00:13.822Z,13.18
2023-05-02T03:02:44.762Z,13.18
2023-05-02T03:05:15.704Z,13.19
2023-05-02T03:07:46.594Z,13.19
2023-05-02T03:10:17.481Z,13.13
2023-05-02T03:12:49.244Z,13.07
2023-05-02T03:15:26.962Z,13.02
2023-05-02T03:17:57.857Z,13.00
2023-05-02T03:20:29.295Z,12.98
2023-05-02T03:23:00.203Z,12.95
2023-05-02T03:25:48.679Z,12.97
2023-05-02T03:28:19.362Z,13.00
2023-05-02T03:30:50.287Z,13.03
2023-05-02T03:33:21.864Z,13.02
2023-05-02T03:35:52.893Z,12.99
2023-05-02T03:38:23.896Z,12.98
2023-05-02T03:40:54.808Z,12.95
2023-05-02T03:43:25.690Z,12.94
2023-05-02T03:45:56.386Z,12.97
2023-05-02T03:48:27.994Z,13.03
2023-05-02T03:50:58.860Z,13.06
2023-05-02T03:53:29.892Z,13.02
2023-05-02T03:56:01.088Z,13.03
2023-05-02T03:58:32.017Z,13.03
2023-05-02T04:01:03.040Z,13.04
2023-05-02T04:03:34.127Z,13.03
2023-05-02T04:06:05.215Z,13.09
2023-05-02T04:08:37.096Z,13.15
2023-05-02T04:11:08.356Z,13.18
2023-05-02T04:13:39.400Z,13.22
2023-05-02T04:16:10.394Z,13.21
2023-05-02T04:18:41.310Z,13.14
2023-05-02T04:21:12.224Z,13.08
2023-05-02T04:23:43.181Z,13.01
2023-05-02T04:26:13.988Z,12.95
2023-05-02T04:28:44.773Z,12.98
2023-05-02T04:31:15.764Z,13.01
2023-05-02T04:33:49.103Z,13.00
2023-05-02T04:43:04.204Z,12.98
2023-05-02T04:45:35.375Z,12.99
2023-05-02T04:48:06.660Z,13.05
2023-05-02T04:50:37.528Z,13.13
2023-05-02T04:53:08.278Z,13.17
2023-05-02T04:55:41.597Z,13.19
2023-05-02T04:58:12.888Z,13.20
2023-05-02T05:00:44.525Z,13.24
2023-05-02T05:03:15.543Z,13.27
2023-05-02T05:05:46.447Z,13.34
2023-05-02T05:08:17.510Z,13.42
2023-05-02T05:10:48.359Z,13.48
2023-05-02T05:13:19.289Z,13.53
2023-05-02T05:15:50.511Z,13.57
2023-05-02T05:18:21.473Z,13.65
2023-05-02T05:20:52.184Z,13.72
2023-05-02T05:23:22.931Z,13.81
2023-05-02T05:25:53.728Z,13.91
2023-05-02T05:28:24.794Z,14.01
2023-05-02T05:30:55.728Z,14.11
2023-05-02T05:33:26.761Z,14.20
2023-05-02T05:35:57.648Z,14.26
2023-05-02T05:38:28.670Z,14.31
2023-05-02T05:40:59.562Z,14.42
2023-05-02T05:43:36.028Z,14.52
2023-05-02T05:46:10.325Z,14.60
2023-05-02T05:48:41.364Z,14.67
2023-05-02T05:51:12.313Z,14.73
2023-05-02T05:53:43.255Z,14.80
2023-05-02T05:56:14.600Z,14.88
2023-05-02T05:58:48.961Z,14.99
2023-05-02T06:01:19.891Z,15.11
2023-05-02T06:03:52.194Z,15.21
2023-05-02T06:06:23.205Z,15.32
2023-05-02T06:08:54.023Z,15.43
2023-05-02T06:11:26.357Z,15.56
2023-05-02T06:13:57.229Z,15.69
2023-05-02T06:16:28.105Z,15.81
2023-05-02T06:19:00.105Z,15.91
2023-05-02T06:21:31.555Z,16.08
2023-05-02T06:24:02.461Z,16.26
2023-05-02T06:26:33.312Z,16.41
2023-05-02T06:29:04.282Z,16.55
2023-05-02T06:31:35.291Z,16.72
2023-05-02T06:34:06.187Z,16.88
2023-05-02T06:36:36.985Z,17.08
2023-05-02T06:39:13.244Z,17.29
2023-05-02T06:41:44.117Z,17.48
2023-05-02T06:44:14.889Z,17.69
2023-05-02T06:46:45.880Z,17.89
2023-05-02T06:49:16.840Z,18.11
2023-05-02T06:51:47.791Z,18.31
2023-05-02T06:54:19.000Z,18.52
2023-05-02T06:56:53.215Z,18.72
2023-05-02T06:59:26.487Z,18.91
2023-05-02T07:01:57.430Z,19.07
2023-05-02T07:04:28.505Z,19.25
2023-05-02T07:07:01.739Z,19.42
2023-05-02T07:09:32.855Z,19.55
2023-05-02T07:12:06.600Z,19.72
2023-05-02T07:14:37.976Z,19.84
2023-05-02T07:17:08.829Z,19.89
2023-05-02T07:19:39.754Z,19.99
2023-05-02T07:22:10.781Z,20.11
2023-05-02T07:24:43.123Z,20.23
2023-05-02T07:27:14.470Z,20.38
2023-05-02T07:29:45.529Z,20.58
2023-05-02T07:32:17.951Z,20.75
2023-05-02T07:34:48.945Z,20.88
2023-05-02T07:37:19.624Z,21.04
2023-05-02T07:39:52.751Z,21.22
2023-05-02T07:42:23.724Z,21.38
2023-05-02T07:44:54.624Z,21.51
2023-05-02T07:47:28.178Z,21.54
2023-05-02T07:49:59.661Z,21.63
2023-05-02T07:52:30.975Z,21.76
2023-05-02T07:55:01.842Z,21.91
2023-05-02T07:57:32.737Z,22.05
2023-05-02T08:00:03.878Z,22.14
2023-05-02T08:02:36.863Z,22.08
2023-05-02T08:05:08.537Z,22.07
2023-05-02T08:07:39.591Z,22.05
2023-05-02T08:10:11.695Z,21.99
2023-05-02T08:12:42.564Z,21.93
2023-05-02T08:15:14.529Z,21.90
2023-05-02T08:17:45.266Z,21.88
2023-05-02T08:20:16.368Z,21.89
2023-05-02T08:22:47.208Z,21.89
2023-05-02T08:25:18.002Z,21.94
2023-05-02T08:27:48.828Z,22.12
2023-05-02T08:30:19.840Z,22.29
2023-05-02T08:32:50.838Z,22.46
2023-05-02T08:35:22.034Z,22.62
2023-05-02T08:37:52.959Z,22.82
2023-05-02T08:40:33.936Z,23.03
2023-05-02T08:43:12.408Z,23.25
2023-05-02T08:45:43.742Z,23.46
2023-05-02T08:48:17.110Z,23.54
2023-05-02T08:50:48.696Z,23.69
2023-05-02T08:53:19.547Z,23.86
2023-05-02T08:55:51.187Z,24.11
2023-05-02T08:58:22.026Z,24.19
2023-05-02T09:00:53.047Z,24.37
2023-05-02T09:03:25.331Z,24.54
2023-05-02T09:06:01.315Z,24.66
2023-05-02T09:08:32.236Z,24.70
2023-05-02T09:11:03.368Z,24.80
2023-05-02T09:13:35.380Z,24.80
2023-05-02T09:16:06.977Z,25.00
2023-05-02T09:18:38.657Z,25.22
2023-05-02T09:21:10.078Z,25.27
2023-05-02T09:23:42.914Z,25.33
2023-05-02T09:26:17.537Z,25.47
2023-05-02T09:28:48.951Z,25.58
2023-05-02T09:31:43.552Z,25.63
2023-05-02T09:34:11.760Z,25.92
2023-05-02T09:36:43.265Z,26.19
2023-05-02T09:39:15.293Z,26.36
2023-05-02T09:41:47.152Z,26.56
2023-05-02T09:44:18.539Z,26.58
2023-05-02T09:46:50.351Z,26.71
2023-05-02T09:49:21.478Z,26.81
2023-05-02T09:51:52.282Z,26.98
2023-05-02T09:54:38.000Z,27.04
2023-05-02T09:57:11.263Z,27.47
2023-05-02T09:59:42.538Z,27.72
2023-05-02T10:02:13.574Z,27.87
2023-05-02T10:04:44.437Z,28.11
2023-05-02T10:07:16.221Z,28.09
2023-05-02T10:09:47.013Z,27.96
2023-05-02T10:12:17.845Z,27.89
2023-05-02T10:14:50.169Z,27.83
2023-05-02T10:17:24.390Z,27.81
2023-05-02T10:19:56.129Z,27.83
2023-05-02T10:22:27.572Z,27.84
2023-05-02T10:25:01.221Z,27.88
2023-05-02T10:27:32.932Z,27.77
2023-05-02T10:30:06.593Z,27.69
2023-05-02T10:32:37.965Z,27.92
2023-05-02T10:35:09.346Z,28.05
2023-05-02T10:37:40.156Z,27.87
2023-05-02T10:40:13.067Z,27.94
2023-05-02T10:42:45.998Z,28.00
2023-05-02T10:45:31.398Z,28.13
2023-05-02T10:48:21.004Z,28.19
2023-05-02T10:50:52.372Z,28.45
2023-05-02T10:53:40.314Z,28.38
2023-05-02T10:56:29.306Z,28.05
2023-05-02T10:59:20.286Z,28.09
2023-05-02T11:01:51.131Z,28.51
2023-05-02T11:04:22.085Z,28.48
2023-05-02T11:07:10.151Z,28.42
2023-05-02T11:09:40.898Z,28.35
2023-05-02T11:12:11.717Z,28.22
2023-05-02T11:14:47.886Z,28.32
2023-05-02T11:17:21.139Z,28.31
2023-05-02T11:20:09.269Z,28.22
2023-05-02T11:22:40.638Z,28.45
2023-05-02T11:25:11.807Z,28.67
2023-05-02T11:27:44.149Z,28.81
2023-05-02T11:30:15.730Z,28.87
2023-05-02T11:33:04.067Z,28.95
2023-05-02T11:35:34.902Z,28.86
2023-05-02T11:38:06.588Z,28.84
2023-05-02T11:40:37.569Z,28.83
2023-05-02T11:43:15.443Z,28.86
2023-05-02T11:45:46.491Z,29.14
2023-05-02T11:48:18.018Z,29.57
2023-05-02T11:50:50.662Z,29.88
2023-05-02T11:53:23.696Z,30.11
2023-05-02T11:55:55.126Z,30.02
2023-05-02T11:58:26.431Z,29.67
2023-05-02T12:00:57.383Z,29.37
2023-05-02T12:03:31.877Z,29.16
2023-05-02T12:06:12.418Z,29.09
2023-05-02T12:08:44.258Z,29.05
2023-05-02T12:11:16.961Z,28.96
2023-05-02T12:13:48.975Z,28.88
2023-05-02T12:16:20.066Z,28.84
2023-05-02T12:18:50.917Z,28.87
2023-05-02T12:21:21.741Z,28.97
2023-05-02T12:23:52.415Z,29.15
2023-05-02T12:26:25.476Z,29.32
2023-05-02T12:28:56.760Z,29.51
2023-05-02T12:31:29.458Z,29.57
2023-05-02T12:34:01.540Z,29.42
2023-05-02T12:36:33.847Z,29.35
2023-05-02T12:39:06.254Z,29.28
2023-05-02T12:41:37.823Z,29.30
2023-05-02T12:44:08.665Z,29.39
2023-05-02T12:46:39.645Z,29.43
2023-05-02T12:49:12.483Z,29.54
2023-05-02T12:51:43.995Z,29.65
2023-05-02T12:54:22.698Z,29.62
2023-05-02T12:56:53.500Z,29.64
2023-05-02T12:59:28.862Z,29.74
2023-05-02T13:01:59.648Z,29.86
2023-05-02T13:04:37.458Z,29.69
2023-05-02T13:07:08.366Z,29.37
2023-05-02T13:09:39.226Z,29.43
2023-05-02T13:12:10.283Z,29.50
2023-05-02T13:14:41.400Z,29.42
2023-05-02T13:17:12.287Z,29.30
2023-05-02T13:20:01.022Z,29.27
2023-05-02T13:22:32.935Z,29.11
2023-05-02T13:25:03.969Z,29.11
2023-05-02T13:27:35.586Z,29.29
2023-05-02T13:30:09.068Z,29.44
2023-05-02T13:32:41.007Z,29.61
2023-05-02T13:35:14.471Z,29.56
2023-05-02T13:37:45.206Z,29.67
2023-05-02T13:40:16.229Z,29.77
2023-05-02T13:42:46.906Z,29.72
2023-05-02T13:45:17.921Z,29.44
2023-05-02T13:47:48.811Z,29.14
2023-05-02T13:50:19.743Z,29.09
2023-05-02T13:52:50.703Z,29.06
2023-05-02T13:55:21.735Z,28.88
2023-05-02T13:57:52.482Z,28.96
2023-05-02T14:00:23.262Z,28.99
2023-05-02T14:02:54.469Z,28.85
2023-05-02T14:05:25.384Z,28.77
2023-05-02T14:07:56.261Z,28.63
2023-05-02T14:10:27.078Z,28.52
2023-05-02T14:12:57.793Z,28.52
2023-05-02T14:15:28.692Z,28.54
2023-05-02T14:17:59.487Z,28.46
2023-05-02T14:20:30.406Z,28.29
2023-05-02T14:23:01.463Z,28.07
2023-05-02T14:25:32.317Z,27.94
2023-05-02T14:28:02.917Z,27.88
2023-05-02T14:34:30.698Z,27.64
2023-05-02T14:37:01.534Z,27.59
2023-05-02T14:39:32.314Z,27.66
2023-05-02T14:42:04.695Z,27.63
2023-05-02T14:44:35.697Z,27.46
2023-05-02T14:47:06.822Z,27.24
2023-05-02T14:49:37.915Z,27.16
2023-05-02T14:52:09.169Z,27.14
2023-05-02T14:54:40.094Z,27.21
2023-05-02T14:57:11.362Z,27.13
2023-05-02T14:59:43.068Z,27.00
2023-05-02T15:02:13.835Z,26.85
2023-05-02T15:04:45.155Z,26.82
2023-05-02T15:07:16.731Z,26.66
2023-05-02T15:09:48.078Z,26.47
2023-05-02T15:12:18.861Z,26.27
2023-05-02T15:14:49.448Z,26.03
2023-05-02T15:17:20.285Z,25.85
2023-05-02T15:19:51.305Z,25.68
2023-05-02T15:22:22.730Z,25.55
2023-05-02T15:24:53.663Z,25.48
2023-05-02T15:27:24.484Z,25.41
2023-05-02T15:29:55.336Z,25.28
2023-05-02T15:32:26.315Z,25.17
2023-05-02T15:34:57.270Z,25.05
2023-05-02T15:37:28.144Z,24.97
2023-05-02T15:40:00.031Z,24.92
2023-05-02T15:42:31.128Z,24.88
2023-05-02T15:45:01.830Z,24.89
2023-05-02T15:47:32.697Z,24.78
2023-05-02T15:50:04.969Z,24.60
2023-05-02T15:52:36.228Z,24.45
2023-05-02T15:55:10.265Z,24.31
2023-05-02T15:57:41.087Z,24.17
2023-05-02T16:00:17.049Z,24.00
2023-05-02T16:02:47.925Z,23.91
2023-05-02T16:05:18.994Z,23.80
2023-05-02T16:07:49.878Z,23.72
2023-05-02T16:10:20.767Z,23.57
2023-05-02T16:12:51.610Z,23.42
2023-05-02T16:15:22.668Z,23.29
2023-05-02T16:17:53.618Z,23.17
2023-05-02T16:20:24.495Z,23.05
2023-05-02T16:22:55.416Z,22.92
2023-05-02T16:25:27.242Z,22.82
2023-05-02T16:27:58.165Z,22.71
2023-05-02T16:30:29.108Z,22.52
2023-05-02T16:32:59.785Z,22.29
2023-05-02T16:35:30.805Z,22.17
2023-05-02T16:38:01.778Z,22.13
2023-05-02T16:40:32.632Z,22.10
2023-05-02T16:43:03.759Z,22.05
2023-05-02T16:45:34.633Z,21.96
2023-05-02T16:48:05.927Z,21.92
2023-05-02T16:50:37.011Z,21.83
2023-05-02T16:53:08.239Z,21.75
2023-05-02T16:55:39.672Z,21.69
2023-05-02T16:58:10.649Z,21.59
2023-05-02T17:00:41.677Z,21.45
2023-05-02T17:03:12.902Z,21.28
2023-05-02T17:05:43.965Z,21.13
2023-05-02T17:08:17.074Z,21.04
2023-05-02T17:10:51.629Z,20.90
2023-05-02T17:13:22.439Z,20.80
2023-05-02T17:15:54.120Z,20.69
2023-05-02T17:18:27.068Z,20.62
2023-05-02T17:20:58.028Z,20.58
2023-05-02T17:23:31.040Z,20.50
2023-05-02T17:26:01.946Z,20.41
2023-05-02T17:28:32.908Z,20.33
2023-05-02T17:31:04.198Z,20.23
2023-05-02T17:33:35.551Z,20.17
2023-05-02T17:36:07.022Z,20.08
2023-05-02T17:38:38.047Z,19.99
2023-05-02T17:41:08.824Z,19.89
2023-05-02T17:43:40.509Z,19.78
2023-05-02T17:46:11.368Z,19.69
2023-05-02T17:48:42.337Z,19.59
2023-05-02T17:51:13.224Z,19.53
2023-05-02T17:53:44.041Z,19.50
2023-05-02T17:56:18.975Z,19.46
2023-05-02T17:58:49.946Z,19.36
2023-05-02T18:01:20.789Z,19.27
2023-05-02T18:03:51.857Z,19.21
2023-05-02T18:06:22.836Z,19.12
2023-05-02T18:08:53.678Z,19.04
2023-05-02T18:11:26.825Z,18.94
2023-05-02T18:14:01.959Z,18.82
2023-05-02T18:16:34.418Z,18.71
2023-05-02T18:19:05.358Z,18.62
2023-05-02T18:21:37.711Z,18.53
2023-05-02T18:24:08.998Z,18.46
2023-05-02T18:26:39.923Z,18.37
2023-05-02T18:29:10.773Z,18.27
2023-05-02T18:31:41.726Z,18.19
2023-05-02T18:34:12.756Z,18.15
2023-05-02T18:36:45.258Z,18.08
2023-05-02T18:39:16.281Z,18.01
2023-05-02T18:41:47.167Z,17.93
2023-05-02T18:44:18.101Z,17.88
2023-05-02T18:46:49.432Z,17.84
2023-05-02T18:49:21.121Z,17.81
2023-05-02T18:51:54.454Z,17.75
2023-05-02T18:54:26.543Z,17.68
2023-05-02T18:56:57.524Z,17.64
2023-05-02T18:59:28.581Z,17.60
2023-05-02T19:02:02.516Z,17.56
2023-05-02T19:04:35.357Z,17.53
2023-05-02T19:07:06.322Z,17.49
2023-05-02T19:09:37.341Z,17.48
2023-05-02T19:12:08.218Z,17.45
2023-05-02T19:14:39.784Z,17.42
2023-05-02T19:17:12.240Z,17.41
2023-05-02T19:19:43.230Z,17.40
2023-05-02T19:22:15.209Z,17.35
2023-05-02T19:24:46.504Z,17.33
2023-05-02T19:27:17.438Z,17.30
2023-05-02T19:29:48.394Z,17.27
2023-05-02T19:32:19.284Z,17.25
2023-05-02T19:34:50.414Z,17.21
2023-05-02T19:37:21.161Z,17.14
2023-05-02T19:39:53.928Z,17.08
2023-05-02T19:42:24.749Z,17.03
2023-05-02T19:44:55.586Z,17.00
2023-05-02T19:47:27.811Z,16.96
2023-05-02T19:49:58.762Z,16.90
2023-05-02T19:52:29.611Z,16.86
2023-05-02T19:55:02.195Z,16.84
2023-05-02T19:57:33.319Z,16.82
2023-05-02T20:00:06.358Z,16.78
2023-05-02T20:02:37.408Z,16.75
2023-05-02T20:05:09.308Z,16.69
2023-05-02T20:07:40.114Z,16.64
2023-05-02T20:10:12.083Z,16.58
2023-05-02T20:12:44.985Z,16.53
2023-05-02T20:15:16.491Z,16.49
2023-05-02T20:17:47.688Z,16.43
2023-05-02T20:20:18.661Z,16.40
2023-05-02T20:22:49.514Z,16.39
2023-05-02T20:25:20.399Z,16.39
2023-05-02T20:27:51.551Z,16.37
2023-05-02T20:30:22.493Z,16.32
2023-05-02T20:32:53.461Z,16.27
2023-05-02T20:35:24.304Z,16.21
2023-05-02T20:37:55.212Z,16.15
2023-05-02T20:40:27.854Z,16.11
2023-05-02T20:43:01.481Z,16.08
2023-05-02T20:45:32.284Z,16.05
2023-05-02T20:48:03.056Z,16.01
2023-05-02T20:50:34.000Z,16.00
2023-05-02T20:53:04.788Z,16.00
2023-05-02T20:55:36.053Z,15.95
2023-05-02T20:58:06.830Z,15.92
2023-05-02T21:00:37.802Z,15.88
2023-05-02T21:03:08.788Z,15.84
2023-05-02T21:05:39.647Z,15.78
2023-05-02T21:08:10.347Z,15.74
2023-05-02T21:10:41.082Z,15.68
2023-05-02T21:13:11.822Z,15.63
2023-05-02T21:15:42.600Z,15.60
2023-05-02T21:18:13.489Z,15.57
2023-05-02T21:20:44.398Z,15.54
2023-05-02T21:23:15.370Z,15.49
2023-05-02T21:25:46.041Z,15.42
2023-05-02T21:28:16.840Z,15.33
2023-05-02T21:30:47.592Z,15.25
2023-05-02T21:33:18.763Z,15.18
2023-05-02T21:35:49.666Z,15.12
2023-05-02T21:38:20.533Z,15.06
2023-05-02T21:40:51.378Z,15.03
2023-05-02T21:43:22.204Z,14.98
2023-05-02T21:45:53.041Z,14.93
2023-05-02T21:48:23.824Z,14.90
2023-05-02T21:50:54.684Z,14.86
2023-05-02T21:53:27.205Z,14.82
2023-05-02T21:55:57.951Z,14.79
2023-05-02T21:58:29.418Z,14.77
2023-05-02T22:01:00.993Z,14.74
2023-05-02T22:03:34.814Z,14.68
2023-05-02T22:06:06.817Z,14.62
2023-05-02T22:08:37.870Z,14.58
2023-05-02T22:11:09.576Z,14.57
2023-05-02T22:13:40.752Z,14.60
2023-05-02T22:16:12.143Z,14.58
2023-05-02T22:18:44.752Z,14.55
2023-05-02T22:21:16.146Z,14.52
2023-05-02T22:23:47.055Z,14.51
2023-05-02T22:26:17.799Z,14.51
2023-05-02T22:28:48.477Z,14.51
2023-05-02T22:31:19.492Z,14.50
2023-05-02T22:33:51.048Z,14.47
2023-05-02T22:36:21.828Z,14.47
2023-05-02T22:38:52.522Z,14.49
2023-05-02T22:41:23.224Z,14.53
2023-05-02T22:43:54.117Z,14.53
2023-05-02T22:46:24.901Z,14.53
2023-05-02T22:48:57.220Z,14.52
2023-05-02T22:51:27.870Z,14.50
2023-05-02T22:53:58.718Z,14.44
2023-05-02T22:56:29.604Z,14.40
2023-05-02T22:59:01.348Z,14.40
2023-05-02T23:01:32.076Z,14.44
2023-05-02T23:04:02.958Z,14.48
2023-05-02T23:06:33.865Z,14.50
2023-05-02T23:09:04.732Z,14.50
2023-05-02T23:11:35.726Z,14.52
2023-05-02T23:14:06.418Z,14.53
2023-05-02T23:16:37.158Z,14.50
2023-05-02T23:19:08.020Z,14.48
2023-05-02T23:21:38.752Z,14.43
2023-05-02T23:24:09.769Z,14.38
2023-05-02T23:26:40.551Z,14.33
2023-05-02T23:29:12.485Z,14.30
2023-05-02T23:31:43.279Z,14.27
2023-05-02T23:34:14.150Z,14.29
2023-05-02T23:36:44.887Z,14.30
2023-05-02T23:39:15.679Z,14.31
2023-05-02T23:41:46.387Z,14.30
2023-05-02T23:44:17.230Z,14.28
2023-05-02T23:46:47.929Z,14.22
2023-05-02T23:49:18.644Z,14.21
2023-05-02T23:51:49.771Z,14.22
2023-05-02T23:54:20.545Z,14.18
2023-05-02T23:56:51.915Z,14.14
2023-05-02T23:59:22.735Z,14.12
